sensor_id;sensor_type;location;lat;lon;timestamp;pressure;altitude;pressure_sealevel;temperature;humidity
5062;BME280;2351;50.812;12.872;2022-09-03T00:00:52;98001.34;;;10.39;75.25
5062;BME280;2351;50.812;12.872;2022-09-03T00:03:28;98002.41;;;10.36;75.24
5062;BME280;2351;50.812;12.872;2022-09-03T00:06:09;97998.22;;;10.34;75.43
5062;BME280;2351;50.812;12.872;2022-09-03T00:08:45;97996.53;;;10.33;75.86
5062;BME280;2351;50.812;12.872;2022-09-03T00:11:23;97991.25;;;10.33;75.53
5062;BME280;2351;50.812;12.872;2022-09-03T00:14:02;97995.44;;;10.35;75.90
5062;BME280;2351;50.812;12.872;2022-09-03T00:16:42;97996.88;;;10.39;76.01
5062;BME280;2351;50.812;12.872;2022-09-03T00:19:17;97995.53;;;10.45;76.18
5062;BME280;2351;50.812;12.872;2022-09-03T00:21:53;97993.31;;;10.50;76.38
5062;BME280;2351;50.812;12.872;2022-09-03T00:24:28;97999.91;;;10.56;76.23
5062;BME280;2351;50.812;12.872;2022-09-03T00:27:10;97988.06;;;10.60;76.57
5062;BME280;2351;50.812;12.872;2022-09-03T00:29:46;97993.72;;;10.67;76.58
5062;BME280;2351;50.812;12.872;2022-09-03T00:32:24;97988.56;;;10.75;76.49
5062;BME280;2351;50.812;12.872;2022-09-03T00:35:02;97984.44;;;10.82;76.75
5062;BME280;2351;50.812;12.872;2022-09-03T00:37:34;97992.13;;;10.85;76.54
5062;BME280;2351;50.812;12.872;2022-09-03T00:40:10;97992.69;;;10.89;76.78
5062;BME280;2351;50.812;12.872;2022-09-03T00:42:55;97987.28;;;10.91;76.85
5062;BME280;2351;50.812;12.872;2022-09-03T00:45:34;97982.66;;;10.93;76.59
5062;BME280;2351;50.812;12.872;2022-09-03T00:48:16;97984.31;;;10.94;76.88
5062;BME280;2351;50.812;12.872;2022-09-03T00:51:06;97985.19;;;10.94;76.99
5062;BME280;2351;50.812;12.872;2022-09-03T00:53:47;97979.75;;;10.96;76.80
5062;BME280;2351;50.812;12.872;2022-09-03T00:56:26;97977.09;;;10.96;76.88
5062;BME280;2351;50.812;12.872;2022-09-03T00:59:12;97976.56;;;11.02;76.95
5062;BME280;2351;50.812;12.872;2022-09-03T01:01:52;97971.00;;;11.05;77.04
5062;BME280;2351;50.812;12.872;2022-09-03T01:04:37;97965.72;;;11.05;76.82
5062;BME280;2351;50.812;12.872;2022-09-03T01:07:18;97969.31;;;11.04;76.84
5062;BME280;2351;50.812;12.872;2022-09-03T01:10:02;97978.25;;;11.03;76.76
5062;BME280;2351;50.812;12.872;2022-09-03T01:12:46;97978.50;;;11.00;76.72
5062;BME280;2351;50.812;12.872;2022-09-03T01:15:29;97976.28;;;10.95;76.54
5062;BME280;2351;50.812;12.872;2022-09-03T01:18:14;97979.03;;;10.94;76.72
5062;BME280;2351;50.812;12.872;2022-09-03T01:20:58;97986.41;;;10.90;76.77
5062;BME280;2351;50.812;12.872;2022-09-03T01:23:47;97982.34;;;10.86;76.68
5062;BME280;2351;50.812;12.872;2022-09-03T01:26:46;97988.19;;;10.80;76.81
5062;BME280;2351;50.812;12.872;2022-09-03T01:29:27;97982.31;;;10.76;76.84
5062;BME280;2351;50.812;12.872;2022-09-03T01:32:06;97986.91;;;10.74;76.97
5062;BME280;2351;50.812;12.872;2022-09-03T01:34:50;97992.44;;;10.71;77.05
5062;BME280;2351;50.812;12.872;2022-09-03T01:37:34;97991.38;;;10.74;76.95
5062;BME280;2351;50.812;12.872;2022-09-03T01:40:16;97986.78;;;10.76;76.79
5062;BME280;2351;50.812;12.872;2022-09-03T01:43:01;97990.00;;;10.79;77.06
5062;BME280;2351;50.812;12.872;2022-09-03T01:45:44;97986.22;;;10.82;76.93
5062;BME280;2351;50.812;12.872;2022-09-03T01:48:31;97990.44;;;10.84;77.08
5062;BME280;2351;50.812;12.872;2022-09-03T01:51:16;97983.22;;;10.87;77.13
5062;BME280;2351;50.812;12.872;2022-09-03T01:54:07;97984.88;;;10.88;77.08
5062;BME280;2351;50.812;12.872;2022-09-03T01:57:03;97985.44;;;10.91;77.16
5062;BME280;2351;50.812;12.872;2022-09-03T01:59:41;97990.75;;;10.91;77.27
5062;BME280;2351;50.812;12.872;2022-09-03T02:02:20;97981.28;;;10.89;77.06
5062;BME280;2351;50.812;12.872;2022-09-03T02:04:58;97981.28;;;10.89;77.33
5062;BME280;2351;50.812;12.872;2022-09-03T02:07:33;97980.56;;;10.87;77.17
5062;BME280;2351;50.812;12.872;2022-09-03T02:10:07;97986.81;;;10.85;77.17
5062;BME280;2351;50.812;12.872;2022-09-03T02:12:40;97990.44;;;10.84;77.46
5062;BME280;2351;50.812;12.872;2022-09-03T02:15:17;97990.28;;;10.86;77.49
5062;BME280;2351;50.812;12.872;2022-09-03T02:17:53;97976.22;;;10.85;77.46
5062;BME280;2351;50.812;12.872;2022-09-03T02:20:27;97983.22;;;10.87;77.33
5062;BME280;2351;50.812;12.872;2022-09-03T02:22:59;97975.38;;;10.85;77.12
5062;BME280;2351;50.812;12.872;2022-09-03T02:25:35;97987.09;;;10.82;77.11
5062;BME280;2351;50.812;12.872;2022-09-03T02:28:07;97984.00;;;10.77;77.38
5062;BME280;2351;50.812;12.872;2022-09-03T02:30:39;97985.38;;;10.72;77.09
5062;BME280;2351;50.812;12.872;2022-09-03T02:33:12;97983.84;;;10.69;77.15
5062;BME280;2351;50.812;12.872;2022-09-03T02:35:44;97984.22;;;10.64;77.12
5062;BME280;2351;50.812;12.872;2022-09-03T02:38:20;97980.53;;;10.55;77.40
5062;BME280;2351;50.812;12.872;2022-09-03T02:40:52;97987.31;;;10.48;77.17
5062;BME280;2351;50.812;12.872;2022-09-03T02:43:26;97984.09;;;10.45;77.29
5062;BME280;2351;50.812;12.872;2022-09-03T02:46:02;97985.47;;;10.39;77.29
5062;BME280;2351;50.812;12.872;2022-09-03T02:48:36;97985.25;;;10.31;77.49
5062;BME280;2351;50.812;12.872;2022-09-03T02:51:08;97982.84;;;10.28;77.32
5062;BME280;2351;50.812;12.872;2022-09-03T02:53:40;97986.03;;;10.21;77.41
5062;BME280;2351;50.812;12.872;2022-09-03T02:56:12;97972.34;;;10.16;77.39
5062;BME280;2351;50.812;12.872;2022-09-03T02:58:44;97985.00;;;10.13;77.69
5062;BME280;2351;50.812;12.872;2022-09-03T03:01:15;97983.56;;;10.08;77.85
5062;BME280;2351;50.812;12.872;2022-09-03T03:03:48;97981.31;;;10.04;77.76
5062;BME280;2351;50.812;12.872;2022-09-03T03:06:20;97981.81;;;9.98;78.09
5062;BME280;2351;50.812;12.872;2022-09-03T03:08:52;97981.50;;;9.91;78.27
5062;BME280;2351;50.812;12.872;2022-09-03T03:11:25;97982.56;;;9.88;78.27
5062;BME280;2351;50.812;12.872;2022-09-03T03:13:57;97972.38;;;9.84;78.33
5062;BME280;2351;50.812;12.872;2022-09-03T03:16:28;97977.78;;;9.82;78.31
5062;BME280;2351;50.812;12.872;2022-09-03T03:19:01;97982.09;;;9.83;78.37
5062;BME280;2351;50.812;12.872;2022-09-03T03:21:33;97982.00;;;9.85;78.27
5062;BME280;2351;50.812;12.872;2022-09-03T03:24:05;97975.59;;;9.87;78.52
5062;BME280;2351;50.812;12.872;2022-09-03T03:26:37;97982.56;;;9.88;78.54
5062;BME280;2351;50.812;12.872;2022-09-03T03:29:13;97971.75;;;9.91;78.62
5062;BME280;2351;50.812;12.872;2022-09-03T03:31:45;97984.56;;;9.96;78.90
5062;BME280;2351;50.812;12.872;2022-09-03T03:34:18;97975.31;;;10.02;78.84
5062;BME280;2351;50.812;12.872;2022-09-03T03:36:49;97981.03;;;10.07;78.59
5062;BME280;2351;50.812;12.872;2022-09-03T03:39:21;97969.38;;;10.09;78.84
5062;BME280;2351;50.812;12.872;2022-09-03T03:41:52;97971.63;;;10.14;78.67
5062;BME280;2351;50.812;12.872;2022-09-03T03:44:24;97968.03;;;10.15;79.03
5062;BME280;2351;50.812;12.872;2022-09-03T03:46:55;97966.19;;;10.16;78.78
5062;BME280;2351;50.812;12.872;2022-09-03T03:49:28;97970.81;;;10.14;78.78
5062;BME280;2351;50.812;12.872;2022-09-03T03:52:00;97960.59;;;10.09;78.75
5062;BME280;2351;50.812;12.872;2022-09-03T03:54:33;97963.78;;;10.03;78.70
5062;BME280;2351;50.812;12.872;2022-09-03T03:57:05;97961.19;;;9.91;78.68
5062;BME280;2351;50.812;12.872;2022-09-03T03:59:36;97967.22;;;9.82;78.86
5062;BME280;2351;50.812;12.872;2022-09-03T04:02:08;97963.53;;;9.73;78.78
5062;BME280;2351;50.812;12.872;2022-09-03T04:04:41;97963.91;;;9.69;78.84
5062;BME280;2351;50.812;12.872;2022-09-03T04:07:12;97964.53;;;9.61;79.01
5062;BME280;2351;50.812;12.872;2022-09-03T04:09:44;97964.22;;;9.54;78.96
5062;BME280;2351;50.812;12.872;2022-09-03T04:12:16;97957.50;;;9.50;79.12
5062;BME280;2351;50.812;12.872;2022-09-03T04:14:48;97963.28;;;9.44;79.02
5062;BME280;2351;50.812;12.872;2022-09-03T04:17:20;97962.81;;;9.39;79.02
5062;BME280;2351;50.812;12.872;2022-09-03T04:19:52;97953.47;;;9.34;79.08
5062;BME280;2351;50.812;12.872;2022-09-03T04:22:24;97957.06;;;9.33;79.44
5062;BME280;2351;50.812;12.872;2022-09-03T04:24:55;97952.75;;;9.32;79.50
5062;BME280;2351;50.812;12.872;2022-09-03T04:27:27;97958.75;;;9.34;79.64
5062;BME280;2351;50.812;12.872;2022-09-03T04:29:58;97953.22;;;9.38;79.58
5062;BME280;2351;50.812;12.872;2022-09-03T04:32:30;97951.03;;;9.43;79.48
5062;BME280;2351;50.812;12.872;2022-09-03T04:35:21;97949.56;;;9.50;79.75
5062;BME280;2351;50.812;12.872;2022-09-03T04:37:53;97960.72;;;9.54;80.02
5062;BME280;2351;50.812;12.872;2022-09-03T04:40:25;97957.72;;;9.58;79.79
5062;BME280;2351;50.812;12.872;2022-09-03T04:42:57;97953.97;;;9.61;79.96
5062;BME280;2351;50.812;12.872;2022-09-03T04:45:29;97957.09;;;9.66;80.10
5062;BME280;2351;50.812;12.872;2022-09-03T04:48:02;97950.44;;;9.72;80.57
5062;BME280;2351;50.812;12.872;2022-09-03T04:50:35;97953.56;;;9.77;80.39
5062;BME280;2351;50.812;12.872;2022-09-03T04:53:07;97952.19;;;9.83;80.66
5062;BME280;2351;50.812;12.872;2022-09-03T04:55:38;97953.00;;;9.94;80.38
5062;BME280;2351;50.812;12.872;2022-09-03T04:58:10;97948.75;;;10.03;80.67
5062;BME280;2351;50.812;12.872;2022-09-03T05:00:42;97956.72;;;10.13;80.70
5062;BME280;2351;50.812;12.872;2022-09-03T05:03:13;97955.38;;;10.19;80.83
5062;BME280;2351;50.812;12.872;2022-09-03T05:05:52;97961.00;;;10.25;80.85
5062;BME280;2351;50.812;12.872;2022-09-03T05:08:24;97966.00;;;10.29;80.88
5062;BME280;2351;50.812;12.872;2022-09-03T05:10:59;97967.44;;;10.33;80.75
5062;BME280;2351;50.812;12.872;2022-09-03T05:13:32;97964.38;;;10.37;81.02
5062;BME280;2351;50.812;12.872;2022-09-03T05:16:06;97966.56;;;10.44;80.94
5062;BME280;2351;50.812;12.872;2022-09-03T05:18:37;97964.22;;;10.50;81.12
5062;BME280;2351;50.812;12.872;2022-09-03T05:21:14;97958.41;;;10.57;81.45
5062;BME280;2351;50.812;12.872;2022-09-03T05:23:47;97965.41;;;10.67;81.34
5062;BME280;2351;50.812;12.872;2022-09-03T05:26:21;97966.44;;;10.76;81.14
5062;BME280;2351;50.812;12.872;2022-09-03T05:28:55;97959.63;;;10.83;81.16
5062;BME280;2351;50.812;12.872;2022-09-03T05:31:28;97969.00;;;10.88;81.22
5062;BME280;2351;50.812;12.872;2022-09-03T05:34:02;97970.94;;;10.85;81.06
5062;BME280;2351;50.812;12.872;2022-09-03T05:36:36;97972.88;;;10.83;80.95
5062;BME280;2351;50.812;12.872;2022-09-03T05:39:08;97964.22;;;10.81;80.83
5062;BME280;2351;50.812;12.872;2022-09-03T05:41:39;97974.56;;;10.84;80.81
5062;BME280;2351;50.812;12.872;2022-09-03T05:44:11;97972.47;;;10.88;80.83
5062;BME280;2351;50.812;12.872;2022-09-03T05:46:43;97962.06;;;10.96;80.90
5062;BME280;2351;50.812;12.872;2022-09-03T05:49:15;97963.19;;;11.04;80.91
5062;BME280;2351;50.812;12.872;2022-09-03T05:51:48;97964.22;;;11.12;80.76
5062;BME280;2351;50.812;12.872;2022-09-03T05:54:19;97969.25;;;11.25;80.91
5062;BME280;2351;50.812;12.872;2022-09-03T05:56:51;97970.81;;;11.38;81.38
5062;BME280;2351;50.812;12.872;2022-09-03T05:59:22;97975.56;;;11.54;81.38
5062;BME280;2351;50.812;12.872;2022-09-03T06:01:54;97969.72;;;11.70;81.22
5062;BME280;2351;50.812;12.872;2022-09-03T06:04:25;97969.16;;;11.86;81.26
5062;BME280;2351;50.812;12.872;2022-09-03T06:06:58;97966.13;;;12.00;81.08
5062;BME280;2351;50.812;12.872;2022-09-03T06:09:30;97971.69;;;12.17;81.00
5062;BME280;2351;50.812;12.872;2022-09-03T06:12:02;97969.44;;;12.32;80.85
5062;BME280;2351;50.812;12.872;2022-09-03T06:14:33;97979.06;;;12.43;80.63
5062;BME280;2351;50.812;12.872;2022-09-03T06:17:05;97979.84;;;12.53;80.20
5062;BME280;2351;50.812;12.872;2022-09-03T06:19:40;97977.75;;;12.67;79.97
5062;BME280;2351;50.812;12.872;2022-09-03T06:22:13;97979.06;;;12.80;79.48
5062;BME280;2351;50.812;12.872;2022-09-03T06:24:45;97967.88;;;12.87;79.10
5062;BME280;2351;50.812;12.872;2022-09-03T06:27:17;97967.25;;;13.03;78.98
5062;BME280;2351;50.812;12.872;2022-09-03T06:29:50;97962.13;;;13.19;78.82
5062;BME280;2351;50.812;12.872;2022-09-03T06:32:21;97962.41;;;13.16;76.23
5062;BME280;2351;50.812;12.872;2022-09-03T06:34:53;97956.50;;;13.22;75.81
5062;BME280;2351;50.812;12.872;2022-09-03T06:37:26;97972.38;;;13.42;76.15
5062;BME280;2351;50.812;12.872;2022-09-03T06:39:57;97974.81;;;13.53;75.19
5062;BME280;2351;50.812;12.872;2022-09-03T06:42:29;97969.22;;;13.57;73.76
5062;BME280;2351;50.812;12.872;2022-09-03T06:45:00;97970.75;;;13.77;73.89
5062;BME280;2351;50.812;12.872;2022-09-03T06:47:32;97969.13;;;13.84;72.97
5062;BME280;2351;50.812;12.872;2022-09-03T06:50:04;97976.41;;;14.00;73.28
5062;BME280;2351;50.812;12.872;2022-09-03T06:52:38;97972.38;;;14.14;72.01
5062;BME280;2351;50.812;12.872;2022-09-03T06:55:10;97978.13;;;14.28;72.45
5062;BME280;2351;50.812;12.872;2022-09-03T06:57:41;97974.91;;;14.42;71.37
5062;BME280;2351;50.812;12.872;2022-09-03T07:00:14;97968.91;;;14.40;69.71
5062;BME280;2351;50.812;12.872;2022-09-03T07:02:45;97958.34;;;14.57;69.85
5062;BME280;2351;50.812;12.872;2022-09-03T07:05:18;97959.72;;;14.61;69.19
5062;BME280;2351;50.812;12.872;2022-09-03T07:07:50;97967.81;;;14.78;68.95
5062;BME280;2351;50.812;12.872;2022-09-03T07:10:22;97960.44;;;14.98;69.19
5062;BME280;2351;50.812;12.872;2022-09-03T07:12:55;97965.66;;;15.16;67.44
5062;BME280;2351;50.812;12.872;2022-09-03T07:15:27;97959.31;;;15.09;63.80
5062;BME280;2351;50.812;12.872;2022-09-03T07:17:58;97953.19;;;15.16;63.29
5062;BME280;2351;50.812;12.872;2022-09-03T07:20:30;97952.41;;;15.32;63.34
5062;BME280;2351;50.812;12.872;2022-09-03T07:23:03;97952.53;;;15.23;60.30
5062;BME280;2351;50.812;12.872;2022-09-03T07:25:34;97956.34;;;15.20;59.47
5062;BME280;2351;50.812;12.872;2022-09-03T07:28:06;97953.03;;;15.34;59.83
5062;BME280;2351;50.812;12.872;2022-09-03T07:30:37;97954.59;;;15.54;59.76
5062;BME280;2351;50.812;12.872;2022-09-03T07:33:09;97956.97;;;15.65;60.43
5062;BME280;2351;50.812;12.872;2022-09-03T07:35:41;97953.63;;;15.71;58.45
5062;BME280;2351;50.812;12.872;2022-09-03T07:38:17;97952.97;;;15.77;58.88
5062;BME280;2351;50.812;12.872;2022-09-03T07:40:56;97942.19;;;15.95;59.43
5062;BME280;2351;50.812;12.872;2022-09-03T07:43:32;97944.69;;;16.05;58.68
5062;BME280;2351;50.812;12.872;2022-09-03T07:46:05;97946.19;;;16.16;58.83
5062;BME280;2351;50.812;12.872;2022-09-03T07:48:38;97943.16;;;16.27;58.03
5062;BME280;2351;50.812;12.872;2022-09-03T07:51:10;97947.34;;;16.30;57.59
5062;BME280;2351;50.812;12.872;2022-09-03T07:53:43;97938.81;;;16.35;57.93
5062;BME280;2351;50.812;12.872;2022-09-03T07:56:15;97946.81;;;16.43;57.30
5062;BME280;2351;50.812;12.872;2022-09-03T07:58:46;97952.78;;;16.53;56.54
5062;BME280;2351;50.812;12.872;2022-09-03T08:01:19;97947.78;;;16.50;55.53
5062;BME280;2351;50.812;12.872;2022-09-03T08:03:52;97946.41;;;16.71;55.95
5062;BME280;2351;50.812;12.872;2022-09-03T08:06:26;97942.56;;;16.74;54.44
5062;BME280;2351;50.812;12.872;2022-09-03T08:09:00;97941.72;;;16.73;54.71
5062;BME280;2351;50.812;12.872;2022-09-03T08:11:34;97952.06;;;16.76;54.59
5062;BME280;2351;50.812;12.872;2022-09-03T08:14:08;97947.00;;;16.90;54.71
5062;BME280;2351;50.812;12.872;2022-09-03T08:16:42;97953.03;;;17.00;54.70
5062;BME280;2351;50.812;12.872;2022-09-03T08:19:15;97951.63;;;17.12;54.83
5062;BME280;2351;50.812;12.872;2022-09-03T08:21:48;97941.69;;;17.29;54.90
5062;BME280;2351;50.812;12.872;2022-09-03T08:24:21;97945.47;;;17.43;54.52
5062;BME280;2351;50.812;12.872;2022-09-03T08:26:54;97937.09;;;17.46;53.97
5062;BME280;2351;50.812;12.872;2022-09-03T08:29:26;97933.75;;;17.44;53.20
5062;BME280;2351;50.812;12.872;2022-09-03T08:31:58;97937.78;;;17.40;53.21
5062;BME280;2351;50.812;12.872;2022-09-03T08:34:29;97939.13;;;17.36;51.90
5062;BME280;2351;50.812;12.872;2022-09-03T08:37:01;97933.56;;;17.46;52.50
5062;BME280;2351;50.812;12.872;2022-09-03T08:39:34;97934.72;;;17.52;51.67
5062;BME280;2351;50.812;12.872;2022-09-03T08:45:02;97924.88;;;17.75;51.71
5062;BME280;2351;50.812;12.872;2022-09-03T08:47:38;97913.41;;;17.82;50.93
5062;BME280;2351;50.812;12.872;2022-09-03T08:50:18;97919.13;;;17.79;48.79
5062;BME280;2351;50.812;12.872;2022-09-03T08:52:55;97919.66;;;17.74;47.96
5062;BME280;2351;50.812;12.872;2022-09-03T08:55:35;97921.16;;;17.76;47.91
5062;BME280;2351;50.812;12.872;2022-09-03T08:58:13;97919.50;;;17.75;47.83
5062;BME280;2351;50.812;12.872;2022-09-03T09:00:48;97918.78;;;17.82;48.28
5062;BME280;2351;50.812;12.872;2022-09-03T09:03:32;97912.88;;;18.10;48.80
5062;BME280;2351;50.812;12.872;2022-09-03T09:06:11;97914.09;;;18.22;46.81
5062;BME280;2351;50.812;12.872;2022-09-03T09:08:56;97911.25;;;18.24;45.46
5062;BME280;2351;50.812;12.872;2022-09-03T09:11:40;97918.53;;;17.91;44.56
5062;BME280;2351;50.812;12.872;2022-09-03T09:14:21;97916.75;;;17.84;45.73
5062;BME280;2351;50.812;12.872;2022-09-03T09:17:02;97908.72;;;17.84;45.36
5062;BME280;2351;50.812;12.872;2022-09-03T09:19:41;97901.78;;;17.74;44.72
5062;BME280;2351;50.812;12.872;2022-09-03T09:22:23;97908.72;;;17.84;45.21
5062;BME280;2351;50.812;12.872;2022-09-03T09:25:00;97907.59;;;18.01;45.38
5062;BME280;2351;50.812;12.872;2022-09-03T09:27:36;97914.19;;;18.14;44.70
5062;BME280;2351;50.812;12.872;2022-09-03T09:30:08;97910.50;;;18.15;44.51
5062;BME280;2351;50.812;12.872;2022-09-03T09:32:40;97904.03;;;18.24;44.57
5062;BME280;2351;50.812;12.872;2022-09-03T09:35:13;97890.31;;;18.42;45.20
5062;BME280;2351;50.812;12.872;2022-09-03T09:37:46;97908.78;;;18.67;44.57
5062;BME280;2351;50.812;12.872;2022-09-03T09:40:26;97896.41;;;18.81;44.93
5062;BME280;2351;50.812;12.872;2022-09-03T09:43:06;97897.78;;;18.92;43.63
5062;BME280;2351;50.812;12.872;2022-09-03T09:45:41;97891.78;;;19.05;43.44
5062;BME280;2351;50.812;12.872;2022-09-03T09:48:18;97894.25;;;19.06;43.14
5062;BME280;2351;50.812;12.872;2022-09-03T09:51:02;97894.19;;;19.00;40.88
5062;BME280;2351;50.812;12.872;2022-09-03T09:53:34;97892.41;;;18.92;41.83
5062;BME280;2351;50.812;12.872;2022-09-03T09:56:06;97884.47;;;18.99;42.26
5062;BME280;2351;50.812;12.872;2022-09-03T09:58:40;97885.66;;;19.11;42.12
5062;BME280;2351;50.812;12.872;2022-09-03T10:01:21;97890.84;;;19.13;42.05
5062;BME280;2351;50.812;12.872;2022-09-03T10:03:56;97875.31;;;19.08;42.08
5062;BME280;2351;50.812;12.872;2022-09-03T10:06:29;97874.28;;;19.09;42.25
5062;BME280;2351;50.812;12.872;2022-09-03T10:09:21;97873.41;;;19.23;42.67
5062;BME280;2351;50.812;12.872;2022-09-03T10:12:03;97878.38;;;19.41;42.63
5062;BME280;2351;50.812;12.872;2022-09-03T10:14:48;97879.25;;;19.49;42.71
5062;BME280;2351;50.812;12.872;2022-09-03T10:17:26;97872.91;;;19.56;42.83
5062;BME280;2351;50.812;12.872;2022-09-03T10:20:04;97875.03;;;19.61;42.15
5062;BME280;2351;50.812;12.872;2022-09-03T10:22:59;97884.13;;;19.60;41.32
5062;BME280;2351;50.812;12.872;2022-09-03T10:25:38;97885.69;;;19.54;40.65
5062;BME280;2351;50.812;12.872;2022-09-03T10:28:10;97885.31;;;19.57;41.40
5062;BME280;2351;50.812;12.872;2022-09-03T10:30:58;97869.75;;;19.68;41.60
5062;BME280;2351;50.812;12.872;2022-09-03T10:33:34;97878.66;;;19.75;41.73
5062;BME280;2351;50.812;12.872;2022-09-03T10:36:14;97868.13;;;19.74;41.01
5062;BME280;2351;50.812;12.872;2022-09-03T10:38:52;97862.44;;;19.83;41.38
5062;BME280;2351;50.812;12.872;2022-09-03T10:41:40;97873.06;;;19.92;40.44
5062;BME280;2351;50.812;12.872;2022-09-03T10:44:33;97860.13;;;20.02;40.84
5062;BME280;2351;50.812;12.872;2022-09-03T10:47:28;97860.63;;;20.12;40.61
5062;BME280;2351;50.812;12.872;2022-09-03T10:50:09;97862.53;;;20.19;40.79
5062;BME280;2351;50.812;12.872;2022-09-03T10:53:03;97860.28;;;20.22;40.34
5062;BME280;2351;50.812;12.872;2022-09-03T10:55:43;97862.22;;;20.35;40.74
5062;BME280;2351;50.812;12.872;2022-09-03T10:58:43;97860.63;;;20.12;38.76
5062;BME280;2351;50.812;12.872;2022-09-03T11:01:26;97859.38;;;20.15;39.56
5062;BME280;2351;50.812;12.872;2022-09-03T11:04:16;97867.97;;;20.32;39.74
5062;BME280;2351;50.812;12.872;2022-09-03T11:06:53;97851.88;;;20.32;39.51
5062;BME280;2351;50.812;12.872;2022-09-03T11:09:30;97846.34;;;20.40;39.69
5062;BME280;2351;50.812;12.872;2022-09-03T11:12:07;97852.81;;;20.53;39.07
5062;BME280;2351;50.812;12.872;2022-09-03T11:14:44;97847.19;;;20.47;38.85
5062;BME280;2351;50.812;12.872;2022-09-03T11:17:22;97845.22;;;20.63;39.18
5062;BME280;2351;50.812;12.872;2022-09-03T11:20:06;97847.84;;;20.85;39.11
5062;BME280;2351;50.812;12.872;2022-09-03T11:22:42;97837.88;;;20.79;38.73
5062;BME280;2351;50.812;12.872;2022-09-03T11:25:18;97839.53;;;20.86;38.89
5062;BME280;2351;50.812;12.872;2022-09-03T11:27:59;97834.81;;;20.88;38.51
5062;BME280;2351;50.812;12.872;2022-09-03T11:30:37;97826.31;;;20.85;38.47
5062;BME280;2351;50.812;12.872;2022-09-03T11:33:11;97823.81;;;20.90;38.74
5062;BME280;2351;50.812;12.872;2022-09-03T11:35:45;97817.88;;;21.01;38.73
5062;BME280;2351;50.812;12.872;2022-09-03T11:38:20;97811.25;;;21.04;38.19
5062;BME280;2351;50.812;12.872;2022-09-03T11:40:59;97810.28;;;21.18;39.11
5062;BME280;2351;50.812;12.872;2022-09-03T11:43:32;97805.72;;;21.32;39.18
5062;BME280;2351;50.812;12.872;2022-09-03T11:46:29;97808.84;;;21.29;37.58
5062;BME280;2351;50.812;12.872;2022-09-03T11:49:10;97810.69;;;21.15;37.87
5062;BME280;2351;50.812;12.872;2022-09-03T11:51:43;97810.28;;;21.45;37.16
5062;BME280;2351;50.812;12.872;2022-09-03T11:54:41;97808.63;;;21.37;37.60
5062;BME280;2351;50.812;12.872;2022-09-03T11:57:15;97812.34;;;21.16;37.81
5062;BME280;2351;50.812;12.872;2022-09-03T11:59:51;97805.72;;;21.26;38.19
5062;BME280;2351;50.812;12.872;2022-09-03T12:02:28;97801.19;;;21.40;38.65
5062;BME280;2351;50.812;12.872;2022-09-03T12:05:13;97803.91;;;21.60;38.35
5062;BME280;2351;50.812;12.872;2022-09-03T12:08:04;97798.72;;;21.85;38.43
5062;BME280;2351;50.812;12.872;2022-09-03T12:10:50;97796.84;;;21.99;37.95
5062;BME280;2351;50.812;12.872;2022-09-03T12:13:31;97788.97;;;22.04;38.32
5062;BME280;2351;50.812;12.872;2022-09-03T12:16:25;97799.47;;;22.33;38.37
5062;BME280;2351;50.812;12.872;2022-09-03T12:19:06;97799.03;;;22.49;37.49
5062;BME280;2351;50.812;12.872;2022-09-03T12:21:40;97795.34;;;22.23;35.85
5062;BME280;2351;50.812;12.872;2022-09-03T12:24:17;97791.88;;;22.16;36.88
5062;BME280;2351;50.812;12.872;2022-09-03T12:26:49;97786.03;;;22.26;37.09
5062;BME280;2351;50.812;12.872;2022-09-03T12:29:23;97782.69;;;22.31;37.05
5062;BME280;2351;50.812;12.872;2022-09-03T12:31:55;97779.56;;;22.40;37.22
5062;BME280;2351;50.812;12.872;2022-09-03T12:34:37;97774.56;;;22.37;36.77
5062;BME280;2351;50.812;12.872;2022-09-03T12:37:18;97782.91;;;22.42;37.02
5062;BME280;2351;50.812;12.872;2022-09-03T12:39:51;97776.66;;;22.35;36.53
5062;BME280;2351;50.812;12.872;2022-09-03T12:42:25;97771.44;;;22.54;37.50
5062;BME280;2351;50.812;12.872;2022-09-03T12:45:04;97770.78;;;22.65;37.08
5062;BME280;2351;50.812;12.872;2022-09-03T12:47:38;97766.38;;;22.71;37.16
5062;BME280;2351;50.812;12.872;2022-09-03T12:50:13;97756.75;;;22.89;37.28
5062;BME280;2351;50.812;12.872;2022-09-03T12:52:46;97762.75;;;22.91;36.33
5062;BME280;2351;50.812;12.872;2022-09-03T12:55:28;97764.38;;;22.98;36.83
5062;BME280;2351;50.812;12.872;2022-09-03T12:58:08;97754.84;;;22.96;35.77
5062;BME280;2351;50.812;12.872;2022-09-03T13:00:45;97762.94;;;22.96;36.00
5062;BME280;2351;50.812;12.872;2022-09-03T13:03:22;97755.03;;;22.62;35.15
5062;BME280;2351;50.812;12.872;2022-09-03T13:05:58;97755.25;;;22.61;35.53
5062;BME280;2351;50.812;12.872;2022-09-03T13:08:35;97748.31;;;22.78;36.02
5062;BME280;2351;50.812;12.872;2022-09-03T13:11:09;97753.38;;;23.00;36.36
5062;BME280;2351;50.812;12.872;2022-09-03T13:13:52;97751.19;;;23.15;35.87
5062;BME280;2351;50.812;12.872;2022-09-03T13:19:28;97752.19;;;23.28;36.13
5062;BME280;2351;50.812;12.872;2022-09-03T13:22:12;97747.06;;;23.45;36.02
5062;BME280;2351;50.812;12.872;2022-09-03T13:24:58;97748.31;;;23.68;36.16
5062;BME280;2351;50.812;12.872;2022-09-03T13:27:38;97749.78;;;23.89;36.31
5062;BME280;2351;50.812;12.872;2022-09-03T13:30:14;97744.88;;;24.04;36.08
5062;BME280;2351;50.812;12.872;2022-09-03T13:32:52;97738.41;;;24.24;35.46
5062;BME280;2351;50.812;12.872;2022-09-03T13:35:31;97740.28;;;24.42;35.76
5062;BME280;2351;50.812;12.872;2022-09-03T13:38:14;97733.44;;;24.58;35.07
5062;BME280;2351;50.812;12.872;2022-09-03T13:40:54;97730.13;;;24.56;34.51
5062;BME280;2351;50.812;12.872;2022-09-03T13:43:31;97727.88;;;24.53;34.09
5062;BME280;2351;50.812;12.872;2022-09-03T13:46:10;97731.66;;;24.33;33.24
5062;BME280;2351;50.812;12.872;2022-09-03T13:48:44;97729.59;;;23.91;33.19
5062;BME280;2351;50.812;12.872;2022-09-03T13:51:38;97733.28;;;23.97;33.93
5062;BME280;2351;50.812;12.872;2022-09-03T13:54:19;97734.38;;;24.15;34.04
5062;BME280;2351;50.812;12.872;2022-09-03T13:56:56;97734.59;;;24.13;34.14
5062;BME280;2351;50.812;12.872;2022-09-03T13:59:34;97735.28;;;24.09;34.00
5062;BME280;2351;50.812;12.872;2022-09-03T14:02:19;97732.34;;;24.10;33.90
5062;BME280;2351;50.812;12.872;2022-09-03T14:05:02;97730.09;;;24.26;34.64
5062;BME280;2351;50.812;12.872;2022-09-03T14:07:46;97727.66;;;24.55;34.77